Time;durP1;ratioP1;P1;durP2;ratioP2;P2;SDS_P1;SDS_P2;PMS_P1;PMS_P2;Temp;Humidity;BMP_temperature;BMP_pressure;BME280_temperature;BME280_humidity;BME280_pressure;Samples;Min_cycle;Max_cycle;Signal;HPM_P1;HPM_P2
2022/03/25 00:01:03;;;;;;;113.85;56.30;;;;;;;7.10;76.24;102877.63;5043152;28;20100;-66
2022/03/25 00:03:28;;;;;;;113.25;55.10;;;;;;;7.01;76.23;102879.41;5041557;28;20055;-66
2022/03/25 00:05:54;;;;;;;110.50;55.97;;;;;;;6.94;76.45;102879.16;5043584;28;20029;-66
2022/03/25 00:08:19;;;;;;;118.95;57.42;;;;;;;6.89;76.54;102875.19;5042636;28;20484;-66
2022/03/25 00:10:44;;;;;;;113.53;53.58;;;;;;;6.84;76.62;102883.00;5043157;28;20111;-66
2022/03/25 00:13:10;;;;;;;114.35;55.55;;;;;;;6.84;76.90;102888.44;5040392;28;20399;-66
2022/03/25 00:15:36;;;;;;;111.05;54.88;;;;;;;6.72;77.13;102875.03;5043708;28;20090;-66
2022/03/25 00:18:01;;;;;;;114.88;53.72;;;;;;;6.66;77.33;102877.53;5042319;28;20024;-66
2022/03/25 00:20:26;;;;;;;113.82;55.38;;;;;;;6.61;77.41;102882.59;5042656;28;20399;-66
2022/03/25 00:22:52;;;;;;;115.82;56.92;;;;;;;6.58;77.41;102888.34;5041922;28;20091;-66
2022/03/25 00:25:17;;;;;;;117.00;55.08;;;;;;;6.57;77.70;102886.66;5041982;28;20056;-66
2022/03/25 00:27:42;;;;;;;114.97;54.58;;;;;;;6.54;77.63;102886.94;5043363;28;20131;-66
2022/03/25 00:30:08;;;;;;;110.78;55.58;;;;;;;6.42;77.81;102881.72;5043098;28;20043;-66
2022/03/25 00:32:33;;;;;;;110.15;52.88;;;;;;;6.34;77.42;102889.81;5040165;28;20021;-67
2022/03/25 00:34:59;;;;;;;110.93;54.47;;;;;;;6.25;77.61;102882.53;5042979;28;20025;-66
2022/03/25 00:37:25;;;;;;;111.47;54.78;;;;;;;6.23;77.91;102884.56;5042634;28;20108;-66
2022/03/25 00:39:51;;;;;;;114.95;53.90;;;;;;;6.16;77.80;102880.72;5042977;28;20043;-66
2022/03/25 00:42:16;;;;;;;105.15;52.83;;;;;;;6.18;78.02;102881.41;5039472;28;20669;-66
2022/03/25 00:44:41;;;;;;;113.35;53.72;;;;;;;6.09;78.03;102885.94;5041198;28;20036;-66
2022/03/25 00:47:07;;;;;;;115.97;54.08;;;;;;;6.09;78.09;102885.94;5041850;28;20644;-66
2022/03/25 00:49:32;;;;;;;109.68;55.13;;;;;;;6.05;78.28;102881.78;5042169;28;20033;-66
2022/03/25 00:51:58;;;;;;;116.82;54.20;;;;;;;6.04;78.25;102877.34;5041491;28;20060;-66
2022/03/25 00:54:23;;;;;;;113.90;54.70;;;;;;;6.06;78.43;102874.47;5040665;28;20024;-66
2022/03/25 00:56:49;;;;;;;111.07;55.17;;;;;;;6.09;78.63;102880.47;5042571;28;20407;-66
2022/03/25 00:59:15;;;;;;;107.68;54.00;;;;;;;6.05;78.20;102884.53;5044414;28;20021;-66
2022/03/25 01:01:40;;;;;;;114.57;55.55;;;;;;;6.04;78.47;102879.22;5046902;28;20052;-66
2022/03/25 01:04:06;;;;;;;115.38;54.55;;;;;;;6.00;77.97;102877.81;5049224;28;20099;-66
2022/03/25 01:06:31;;;;;;;110.93;54.28;;;;;;;5.96;78.31;102875.34;5048144;28;20116;-66
2022/03/25 01:08:57;;;;;;;108.85;53.63;;;;;;;5.94;78.56;102882.00;5049622;28;20029;-66
2022/03/25 01:11:22;;;;;;;116.75;55.10;;;;;;;5.90;78.70;102889.56;5047488;28;20051;-66
2022/03/25 01:13:48;;;;;;;112.28;52.83;;;;;;;5.93;78.75;102888.44;5049173;28;20029;-66
2022/03/25 01:16:13;;;;;;;116.78;54.85;;;;;;;5.87;78.65;102889.00;5048011;28;20025;-66
2022/03/25 01:18:39;;;;;;;114.78;53.80;;;;;;;5.86;78.70;102885.41;5047133;28;20108;-66
2022/03/25 01:21:04;;;;;;;107.82;51.38;;;;;;;5.89;78.50;102885.13;5049187;28;20175;-66
2022/03/25 01:23:29;;;;;;;115.80;54.13;;;;;;;5.87;78.39;102889.00;5047805;28;20115;-66
2022/03/25 01:25:55;;;;;;;110.25;54.22;;;;;;;5.83;78.30;102887.56;5048511;28;20021;-66
2022/03/25 01:28:20;;;;;;;112.53;52.90;;;;;;;5.82;78.38;102888.59;5047367;28;20750;-66
2022/03/25 01:30:46;;;;;;;113.90;53.92;;;;;;;5.78;78.36;102882.59;5046420;28;20035;-66
2022/03/25 01:33:12;;;;;;;111.93;51.42;;;;;;;5.77;78.29;102888.19;5048862;28;20021;-66
2022/03/25 01:35:38;;;;;;;108.30;52.78;;;;;;;5.69;77.92;102889.78;5048700;28;20128;-66
2022/03/25 01:38:04;;;;;;;108.13;51.22;;;;;;;5.67;78.49;102883.63;5048760;28;20116;-66
2022/03/25 01:40:30;;;;;;;103.82;51.30;;;;;;;5.62;78.51;102880.47;5048897;28;20025;-66
2022/03/25 01:42:55;;;;;;;106.25;50.55;;;;;;;5.58;78.50;102878.22;5029291;28;20040;-66
2022/03/25 01:45:35;;;;;;;107.80;51.90;;;;;;;5.58;78.45;102878.22;5037375;28;20100;-66
2022/03/25 01:48:03;;;;;;;102.38;50.15;;;;;;;5.47;78.43;102877.38;5048218;28;20036;-66
2022/03/25 01:50:29;;;;;;;96.90;48.22;;;;;;;5.45;78.52;102879.38;5048651;28;20106;-66
2022/03/25 01:52:54;;;;;;;101.05;50.35;;;;;;;5.43;78.50;102875.09;5048063;28;20029;-66
2022/03/25 01:55:26;;;;;;;99.95;49.10;;;;;;;5.35;78.28;102883.13;5046351;28;20044;-66
2022/03/25 01:57:55;;;;;;;99.47;50.03;;;;;;;5.25;78.46;102877.72;5034769;28;20124;-66
2022/03/25 02:00:21;;;;;;;100.82;47.97;;;;;;;5.28;78.75;102890.19;5048794;28;20025;-66
2022/03/25 02:02:47;;;;;;;99.55;48.83;;;;;;;5.20;78.62;102883.59;5047422;28;20028;-66
2022/03/25 02:05:13;;;;;;;97.80;47.63;;;;;;;5.09;79.08;102882.91;5048020;28;20037;-66
2022/03/25 02:07:40;;;;;;;91.00;47.30;;;;;;;5.03;79.08;102887.06;5048555;28;20044;-66
2022/03/25 02:10:05;;;;;;;94.38;48.88;;;;;;;5.00;79.38;102879.16;5046986;28;20017;-66
2022/03/25 02:12:32;;;;;;;96.50;47.63;;;;;;;4.97;79.13;102879.47;5043732;28;20032;-66
2022/03/25 02:14:57;;;;;;;99.53;48.38;;;;;;;4.99;79.12;102879.31;5043609;28;20502;-66
2022/03/25 02:17:23;;;;;;;88.53;45.33;;;;;;;4.99;78.71;102884.75;5040036;28;20029;-66
2022/03/25 02:19:49;;;;;;;102.25;48.10;;;;;;;5.00;78.70;102879.16;5041654;28;20124;-66
2022/03/25 02:22:14;;;;;;;99.43;47.67;;;;;;;5.00;78.16;102879.16;5044023;28;20040;-66
2022/03/25 02:24:40;;;;;;;94.68;46.55;;;;;;;5.02;78.10;102877.19;5043629;28;20025;-66
2022/03/25 02:27:05;;;;;;;92.03;45.50;;;;;;;5.03;78.00;102881.63;5043812;28;20032;-66
2022/03/25 02:29:32;;;;;;;96.53;46.67;;;;;;;5.08;77.46;102873.88;5042779;28;20494;-66
2022/03/25 02:31:57;;;;;;;87.60;44.78;;;;;;;5.07;77.36;102879.44;5043882;28;20376;-66
2022/03/25 02:34:24;;;;;;;96.88;46.97;;;;;;;5.06;77.28;102883.16;5043021;28;20047;-66
2022/03/25 02:36:49;;;;;;;83.63;43.17;;;;;;;5.03;77.25;102872.59;5044531;28;20100;-66
2022/03/25 02:39:16;;;;;;;87.28;43.53;;;;;;;4.98;77.11;102880.31;5044105;28;20159;-66
2022/03/25 02:41:41;;;;;;;90.78;43.60;;;;;;;4.93;76.74;102875.31;5044206;28;20032;-66
2022/03/25 02:44:08;;;;;;;82.78;42.83;;;;;;;4.93;77.04;102878.03;5043539;28;20033;-66
2022/03/25 02:46:33;;;;;;;86.18;43.45;;;;;;;4.91;76.61;102864.53;5043402;28;20025;-66
2022/03/25 02:48:58;;;;;;;83.38;43.95;;;;;;;4.89;76.89;102877.47;5043850;28;20120;-66
2022/03/25 02:51:24;;;;;;;89.22;43.92;;;;;;;4.90;76.80;102872.88;5042082;28;20036;-66
2022/03/25 02:53:49;;;;;;;87.38;43.15;;;;;;;4.86;76.42;102876.88;5044792;28;20086;-66
2022/03/25 02:56:15;;;;;;;85.95;42.90;;;;;;;4.79;76.79;102875.75;5042775;28;20064;-66
2022/03/25 02:58:40;;;;;;;84.60;42.00;;;;;;;4.77;76.97;102878.63;5044058;28;20029;-66
2022/03/25 03:01:06;;;;;;;83.95;41.78;;;;;;;4.64;76.89;102878.03;5042839;28;20025;-66
2022/03/25 03:03:32;;;;;;;79.00;41.88;;;;;;;4.57;77.27;102869.56;5043837;28;20512;-66
2022/03/25 03:05:59;;;;;;;82.50;41.30;;;;;;;4.50;77.44;102881.16;5044272;28;20067;-66
2022/03/25 03:08:24;;;;;;;83.10;41.08;;;;;;;4.43;77.63;102880.84;5043289;28;20196;-66
2022/03/25 03:10:49;;;;;;;80.22;41.00;;;;;;;4.40;77.78;102881.13;5038844;28;20150;-66
2022/03/25 03:13:15;;;;;;;77.28;40.63;;;;;;;4.32;78.04;102884.56;5043420;28;20132;-66
2022/03/25 03:15:40;;;;;;;67.78;36.90;;;;;;;4.19;78.16;102880.38;5043398;28;20094;-66
2022/03/25 03:18:06;;;;;;;76.28;39.40;;;;;;;4.07;78.80;102885.06;5044083;28;20103;-66
2022/03/25 03:20:32;;;;;;;71.07;37.60;;;;;;;4.03;78.99;102887.19;5040083;28;20029;-66
2022/03/25 03:22:57;;;;;;;79.32;40.67;;;;;;;4.03;78.98;102879.03;5043038;28;20021;-66
2022/03/25 03:25:26;;;;;;;85.63;41.63;;;;;;;4.03;78.99;102880.91;5043367;28;20534;-66
2022/03/25 03:27:52;;;;;;;83.07;43.08;;;;;;;4.03;78.62;102881.75;5043353;28;20120;-66
2022/03/25 03:30:17;;;;;;;86.88;42.30;;;;;;;4.03;78.69;102878.19;5041221;28;20378;-66
2022/03/25 03:32:42;;;;;;;78.38;41.88;;;;;;;4.05;78.41;102876.16;5040560;28;20029;-66
2022/03/25 03:35:08;;;;;;;83.05;43.95;;;;;;;4.07;78.26;102880.47;5043236;28;20029;-66
2022/03/25 03:37:44;;;;;;;78.82;40.80;;;;;;;4.05;78.01;102868.88;5041955;28;20037;-66
2022/03/25 03:40:12;;;;;;;82.93;41.67;;;;;;;4.02;78.27;102877.31;5037940;28;20040;-66
2022/03/25 03:42:38;;;;;;;82.70;41.97;;;;;;;4.02;78.02;102876.47;5042456;28;20029;-66
2022/03/25 03:45:04;;;;;;;86.72;42.50;;;;;;;3.96;78.34;102882.47;5042366;28;20371;-66
2022/03/25 03:47:30;;;;;;;75.25;40.22;;;;;;;3.90;78.07;102878.41;5041546;28;20032;-66
2022/03/25 03:49:55;;;;;;;82.95;40.03;;;;;;;3.85;78.47;102887.00;5038953;28;20509;-66
2022/03/25 03:52:20;;;;;;;79.18;39.40;;;;;;;3.80;77.97;102878.38;5041881;28;20118;-66
2022/03/25 03:54:46;;;;;;;75.93;42.03;;;;;;;3.75;78.09;102879.75;5043280;28;20230;-66
2022/03/25 03:57:11;;;;;;;82.68;41.10;;;;;;;3.70;77.97;102882.91;5042810;28;20404;-66
2022/03/25 03:59:36;;;;;;;79.75;40.95;;;;;;;3.67;78.58;102877.75;5042797;28;20032;-66
2022/03/25 04:02:03;;;;;;;81.57;42.80;;;;;;;3.60;78.21;102876.56;5040810;28;20954;-66
2022/03/25 04:04:28;;;;;;;82.88;40.65;;;;;;;3.57;78.51;102882.28;5042865;28;20100;-66
2022/03/25 04:06:53;;;;;;;78.72;40.90;;;;;;;3.51;78.67;102886.38;5041063;28;20102;-66
2022/03/25 04:09:19;;;;;;;80.68;41.15;;;;;;;3.46;78.65;102879.63;5042500;28;20060;-66
2022/03/25 04:11:44;;;;;;;83.28;40.92;;;;;;;3.36;78.90;102877.72;5039809;28;20109;-66
2022/03/25 04:14:09;;;;;;;82.45;40.45;;;;;;;3.37;79.23;102882.16;5042527;28;20506;-66
2022/03/25 04:16:35;;;;;;;82.70;42.03;;;;;;;3.35;79.15;102886.88;5041996;28;20029;-66
2022/03/25 04:19:00;;;;;;;80.72;40.13;;;;;;;3.29;79.29;102887.38;5042601;28;20049;-66
2022/03/25 04:21:26;;;;;;;80.03;41.90;;;;;;;3.25;79.70;102894.09;5041535;28;20484;-66
2022/03/25 04:23:52;;;;;;;75.90;38.35;;;;;;;3.19;79.61;102899.16;5041876;28;20518;-66
2022/03/25 04:26:17;;;;;;;77.45;40.60;;;;;;;3.13;79.77;102892.41;5042322;28;20059;-66
2022/03/25 04:28:42;;;;;;;84.18;42.20;;;;;;;3.06;79.81;102900.22;5042351;28;20365;-66
2022/03/25 04:31:07;;;;;;;83.00;40.15;;;;;;;3.01;79.67;102897.06;5041481;28;20045;-66
2022/03/25 04:33:34;;;;;;;77.45;38.88;;;;;;;2.98;79.97;102905.44;5041338;28;20056;-66
2022/03/25 04:36:00;;;;;;;76.85;39.10;;;;;;;2.94;80.21;102906.72;5042467;28;20438;-66
2022/03/25 04:38:26;;;;;;;82.63;41.33;;;;;;;2.93;80.26;102902.25;5041946;28;20029;-66
2022/03/25 04:40:51;;;;;;;80.68;41.70;;;;;;;2.93;80.52;102895.97;5040797;28;20017;-66
2022/03/25 04:43:17;;;;;;;78.90;39.35;;;;;;;2.95;80.41;102896.72;5041963;28;20337;-66
2022/03/25 04:45:42;;;;;;;80.22;40.53;;;;;;;2.98;80.14;102899.16;5040754;28;20036;-66
2022/03/25 04:48:08;;;;;;;78.90;41.33;;;;;;;2.96;80.01;102899.28;5042479;28;20043;-66
2022/03/25 04:50:33;;;;;;;82.50;42.10;;;;;;;2.95;80.14;102900.28;5041134;28;20037;-66
2022/03/25 04:52:58;;;;;;;79.05;40.65;;;;;;;2.96;80.09;102902.00;5041641;28;20021;-66
2022/03/25 04:55:24;;;;;;;83.53;42.40;;;;;;;3.04;80.24;102906.78;5042196;28;20471;-66
2022/03/25 04:57:49;;;;;;;89.47;43.17;;;;;;;3.07;79.71;102901.09;5042199;28;20787;-66
2022/03/25 05:00:17;;;;;;;85.45;41.88;;;;;;;3.04;79.93;102913.09;5040198;28;20037;-66
2022/03/25 05:02:42;;;;;;;81.03;41.70;;;;;;;3.04;79.45;102901.34;5041936;28;20036;-66
2022/03/25 05:05:08;;;;;;;80.43;41.67;;;;;;;3.00;79.68;102903.47;5041778;28;20029;-66
2022/03/25 05:07:33;;;;;;;76.47;38.90;;;;;;;2.95;80.05;102904.88;5041760;28;20033;-66
2022/03/25 05:10:00;;;;;;;86.30;42.80;;;;;;;2.93;80.23;102901.41;5032362;28;20029;-66
2022/03/25 05:12:26;;;;;;;83.40;40.80;;;;;;;2.89;80.20;102903.53;5040519;28;20032;-66
2022/03/25 05:14:52;;;;;;;82.05;41.97;;;;;;;2.87;80.23;102905.50;5041745;28;20032;-66
2022/03/25 05:17:17;;;;;;;86.05;42.70;;;;;;;2.91;80.33;102908.81;5040878;28;20391;-66
2022/03/25 05:19:42;;;;;;;85.15;42.38;;;;;;;2.93;80.07;102910.41;5040392;28;20095;-66
2022/03/25 05:22:08;;;;;;;86.25;44.17;;;;;;;2.97;80.12;102906.44;5039835;28;20056;-66
2022/03/25 05:24:33;;;;;;;86.28;43.35;;;;;;;2.94;80.19;102912.16;5039112;28;20039;-65
2022/03/25 05:26:59;;;;;;;80.68;42.28;;;;;;;2.92;80.28;102908.69;5042525;28;20040;-66
2022/03/25 05:29:25;;;;;;;83.85;43.83;;;;;;;2.89;80.16;102908.06;5041298;28;20061;-65
2022/03/25 05:31:51;;;;;;;86.85;42.53;;;;;;;2.86;80.27;102909.22;5040323;28;20025;-65
2022/03/25 05:34:16;;;;;;;90.88;42.40;;;;;;;2.86;80.23;102915.50;5039390;28;20094;-65
2022/03/25 05:36:41;;;;;;;83.72;41.47;;;;;;;2.86;80.46;102915.50;5042067;28;20064;-65
2022/03/25 05:39:06;;;;;;;82.15;41.25;;;;;;;2.84;80.67;102908.50;5041189;28;20587;-65
2022/03/25 05:41:32;;;;;;;88.65;44.50;;;;;;;2.85;80.64;102910.22;5040404;28;20036;-66
2022/03/25 05:43:58;;;;;;;85.57;43.72;;;;;;;2.90;80.72;102910.69;5041898;28;20029;-66
2022/03/25 05:46:23;;;;;;;91.65;44.70;;;;;;;2.88;80.23;102918.06;5039216;28;20537;-66
2022/03/25 05:48:48;;;;;;;91.13;41.83;;;;;;;2.89;80.74;102917.09;5043721;28;20063;-66
2022/03/25 05:51:14;;;;;;;94.15;41.72;;;;;;;2.88;81.06;102911.78;5041191;28;20021;-66
2022/03/25 05:53:41;;;;;;;87.97;43.45;;;;;;;2.88;80.71;102915.34;5045814;28;20032;-66
2022/03/25 05:56:07;;;;;;;84.13;40.90;;;;;;;2.86;80.50;102925.50;5045179;28;20247;-66
2022/03/25 05:58:33;;;;;;;81.93;41.78;;;;;;;2.86;80.62;102922.78;5044833;28;20475;-66
2022/03/25 06:00:59;;;;;;;85.90;41.50;;;;;;;2.89;80.71;102925.25;5043779;28;20049;-66
2022/03/25 06:03:24;;;;;;;87.07;43.22;;;;;;;2.94;80.64;102932.97;5044327;28;20086;-66
2022/03/25 06:05:49;;;;;;;80.75;41.30;;;;;;;2.95;80.41;102930.16;5045360;28;20430;-66
2022/03/25 06:08:15;;;;;;;87.43;41.75;;;;;;;2.97;80.39;102925.44;5042496;28;20116;-65
2022/03/25 06:10:40;;;;;;;92.05;44.63;;;;;;;3.03;80.61;102927.63;5044711;28;20036;-66
2022/03/25 06:13:05;;;;;;;96.97;45.28;;;;;;;3.10;80.26;102931.56;5045490;28;20033;-66
2022/03/25 06:15:31;;;;;;;89.72;44.30;;;;;;;3.24;80.22;102932.22;5043558;28;20033;-67
2022/03/25 06:17:56;;;;;;;95.05;43.63;;;;;;;3.37;79.95;102943.75;5043139;28;20491;-66
2022/03/25 06:20:27;;;;;;;89.22;45.20;;;;;;;3.50;79.58;102947.16;5044149;28;20048;-65
2022/03/25 06:22:52;;;;;;;87.45;44.17;;;;;;;3.62;79.00;102946.06;5041042;28;20053;-66
2022/03/25 06:25:18;;;;;;;82.60;42.78;;;;;;;3.72;79.16;102948.00;5044659;28;20063;-66
2022/03/25 06:27:52;;;;;;;85.22;43.15;;;;;;;3.86;79.07;102953.94;5043627;28;20140;-66
2022/03/25 06:30:19;;;;;;;88.15;42.65;;;;;;;3.98;78.77;102946.56;5042762;28;20029;-66
2022/03/25 06:32:45;;;;;;;87.07;44.47;;;;;;;4.10;78.47;102947.31;5044334;28;20471;-65
2022/03/25 06:35:11;;;;;;;89.53;43.28;;;;;;;4.22;78.72;102948.09;5044283;28;20295;-66
2022/03/25 06:37:37;;;;;;;93.05;44.10;;;;;;;4.38;78.09;102948.44;5043455;28;20058;-65
2022/03/25 06:40:07;;;;;;;92.43;46.58;;;;;;;4.55;77.13;102946.91;5044376;28;20067;-66
2022/03/25 06:42:37;;;;;;;97.28;48.25;;;;;;;4.73;77.03;102947.94;5044256;28;20060;-66
2022/03/25 06:45:03;;;;;;;95.78;48.22;;;;;;;4.86;77.21;102953.09;5042516;28;20029;-66
2022/03/25 06:47:29;;;;;;;94.22;50.00;;;;;;;4.91;76.85;102954.41;5043019;28;20590;-66
2022/03/25 06:49:54;;;;;;;108.75;51.53;;;;;;;5.07;77.12;102951.13;5044160;28;20039;-65
2022/03/25 06:52:20;;;;;;;109.60;55.17;;;;;;;5.30;76.22;102945.38;5042656;28;20491;-65
2022/03/25 06:54:45;;;;;;;107.85;53.60;;;;;;;5.43;76.45;102954.13;5041663;28;20035;-66
2022/03/25 06:57:11;;;;;;;113.15;56.60;;;;;;;5.52;76.99;102961.41;5042815;28;20130;-66
2022/03/25 06:59:37;;;;;;;122.32;58.70;;;;;;;5.67;76.20;102962.66;5055983;28;20064;-66
2022/03/25 07:02:02;;;;;;;115.30;57.97;;;;;;;5.87;75.92;102965.34;5043003;28;20048;-66
2022/03/25 07:04:28;;;;;;;115.38;57.83;;;;;;;6.10;75.76;102961.31;5041692;28;20127;-66
2022/03/25 07:06:55;;;;;;;116.38;58.95;;;;;;;6.45;75.39;102959.72;5041471;28;20044;-66
2022/03/25 07:09:21;;;;;;;115.00;58.05;;;;;;;6.76;74.16;102965.72;5041362;28;20037;-66
2022/03/25 07:11:47;;;;;;;117.00;60.72;;;;;;;7.10;72.29;102957.72;5042925;28;20083;-66
2022/03/25 07:14:12;;;;;;;114.15;59.00;;;;;;;7.53;71.34;102964.22;5042093;28;20060;-66
2022/03/25 07:16:42;;;;;;;114.22;59.28;;;;;;;7.63;69.83;102959.50;5043318;28;20739;-66
2022/03/25 07:19:07;;;;;;;117.18;59.33;;;;;;;7.77;69.39;102958.94;5044242;28;20479;-66
2022/03/25 07:21:32;;;;;;;115.63;60.78;;;;;;;7.88;69.46;102965.16;5043106;28;20065;-66
2022/03/25 07:23:57;;;;;;;118.18;59.20;;;;;;;8.00;68.85;102958.38;5043046;28;20356;-66
2022/03/25 07:26:23;;;;;;;116.88;61.63;;;;;;;8.11;68.70;102965.44;5043664;28;20052;-66
2022/03/25 07:28:48;;;;;;;120.15;60.20;;;;;;;8.21;68.53;102967.06;5042652;28;20415;-66
2022/03/25 07:31:13;;;;;;;121.03;61.90;;;;;;;8.64;67.63;102969.84;5041925;28;20029;-66
2022/03/25 07:33:38;;;;;;;116.35;60.33;;;;;;;8.94;66.61;102963.78;5041486;28;20077;-66
2022/03/25 07:36:04;;;;;;;113.88;60.33;;;;;;;9.57;65.67;102974.09;5043621;28;20032;-66
2022/03/25 07:38:30;;;;;;;115.57;61.10;;;;;;;10.68;62.37;102967.81;5042440;28;20029;-67
2022/03/25 07:40:56;;;;;;;115.45;61.20;;;;;;;10.89;59.18;102969.94;5043179;28;20477;-66
2022/03/25 07:43:21;;;;;;;115.55;61.35;;;;;;;11.12;58.94;102976.31;5041297;28;20072;-66
2022/03/25 07:45:47;;;;;;;96.57;48.42;;;;;;;11.68;56.57;102974.16;5042076;28;20064;-67
2022/03/25 07:48:12;;;;;;;114.70;62.05;;;;;;;11.59;55.99;102977.16;5042689;28;20025;-65
2022/03/25 07:50:37;;;;;;;101.60;49.20;;;;;;;11.55;55.65;102989.59;5043213;28;20510;-65
2022/03/25 07:53:03;;;;;;;115.22;62.60;;;;;;;11.21;56.56;102993.63;5040168;28;20035;-66
2022/03/25 07:55:28;;;;;;;119.78;63.00;;;;;;;11.48;56.57;102994.13;5037264;28;20072;-66
2022/03/25 07:57:54;;;;;;;119.65;62.00;;;;;;;11.93;55.78;102996.84;5039881;28;20095;-66
2022/03/25 08:00:19;;;;;;;122.97;65.00;;;;;;;12.05;54.83;102993.63;5027353;28;20032;-66
2022/03/25 08:02:50;;;;;;;130.50;63.92;;;;;;;12.18;54.19;103002.94;5032873;28;20040;-66
2022/03/25 08:05:15;;;;;;;128.60;64.78;;;;;;;11.90;56.09;103004.63;5036677;28;20052;-65
2022/03/25 08:07:48;;;;;;;102.60;48.67;;;;;;;11.89;54.52;103006.50;5041943;28;20110;-66
2022/03/25 08:10:16;;;;;;;140.82;68.05;;;;;;;11.12;58.01;103005.72;5037696;28;20100;-65
2022/03/25 08:12:42;;;;;;;135.40;68.95;;;;;;;11.22;59.16;103006.34;5038107;28;20029;-65
2022/03/25 08:15:07;;;;;;;133.18;67.97;;;;;;;11.31;59.73;103021.75;5033880;28;20044;-65
2022/03/25 08:17:46;;;;;;;136.52;67.45;;;;;;;11.28;60.08;103016.63;5037923;28;20017;-66
2022/03/25 08:20:12;;;;;;;133.82;67.35;;;;;;;11.26;59.63;103010.44;5038987;28;20052;-66
2022/03/25 08:22:37;;;;;;;127.80;64.93;;;;;;;11.15;59.70;103019.09;5035454;28;20013;-66
2022/03/25 08:27:50;;;;;;;133.32;64.30;;;;;;;11.34;57.36;103021.38;5038354;28;20044;-66
2022/03/25 08:30:15;;;;;;;127.60;58.35;;;;;;;11.63;54.77;103019.81;5041697;28;20017;-66
2022/03/25 08:32:40;;;;;;;120.97;54.70;;;;;;;11.78;54.33;103017.94;5037271;28;20032;-66
2022/03/25 08:35:07;;;;;;;122.38;59.67;;;;;;;12.06;54.96;103020.13;5041342;28;20032;-66
2022/03/25 08:37:32;;;;;;;118.60;54.60;;;;;;;12.95;50.92;103016.31;5037107;28;20060;-66
2022/03/25 08:39:57;;;;;;;122.13;60.05;;;;;;;13.17;51.34;103019.09;5037631;28;20071;-66
2022/03/25 08:42:23;;;;;;;117.82;55.85;;;;;;;13.47;48.75;103026.25;5036371;28;20060;-66
2022/03/25 08:44:48;;;;;;;128.30;61.80;;;;;;;13.18;50.17;103023.59;5035842;28;20119;-66
2022/03/25 08:47:13;;;;;;;110.88;49.70;;;;;;;13.26;48.58;103022.63;5038271;28;20032;-66
2022/03/25 08:49:39;;;;;;;118.97;58.25;;;;;;;13.34;51.25;103020.59;5040181;28;20033;-65
2022/03/25 08:52:04;;;;;;;119.78;54.42;;;;;;;13.65;49.12;103023.03;5035732;28;20070;-65
2022/03/25 08:54:30;;;;;;;114.60;57.60;;;;;;;13.61;50.22;103026.38;5037980;28;20041;-65
2022/03/25 08:56:55;;;;;;;110.35;54.67;;;;;;;13.77;50.08;103026.09;5036048;28;20037;-66
2022/03/25 08:59:20;;;;;;;115.05;54.40;;;;;;;14.40;47.16;103040.00;5039520;28;20673;-66
2022/03/25 09:01:46;;;;;;;105.22;49.08;;;;;;;14.53;45.51;103032.66;5035610;28;20025;-66
2022/03/25 09:04:11;;;;;;;108.75;50.88;;;;;;;14.37;45.11;103038.47;5036020;28;20116;-66
2022/03/25 09:06:36;;;;;;;106.00;50.67;;;;;;;15.41;45.14;103035.59;5041568;28;20037;-66
2022/03/25 09:09:01;;;;;;;94.00;42.45;;;;;;;16.51;38.85;103031.31;5039446;28;20029;-66
2022/03/25 09:11:27;;;;;;;109.18;51.72;;;;;;;17.00;38.74;103040.16;5039887;28;20033;-66
2022/03/25 09:13:52;;;;;;;109.80;52.90;;;;;;;18.20;38.83;103040.19;5035761;28;20619;-66
2022/03/25 09:16:19;;;;;;;99.32;47.33;;;;;;;18.72;33.22;103051.91;5035695;28;20029;-66
2022/03/25 09:18:44;;;;;;;78.70;37.65;;;;;;;18.03;33.01;103043.56;5040902;28;20068;-66
2022/03/25 09:21:10;;;;;;;96.10;47.58;;;;;;;17.97;35.27;103047.25;5042556;28;20079;-66
2022/03/25 09:23:35;;;;;;;105.43;50.33;;;;;;;18.86;35.33;103053.47;5044539;28;20029;-65
2022/03/25 09:26:01;;;;;;;99.80;52.90;;;;;;;19.57;35.73;103049.94;5041927;28;20472;-65
2022/03/25 09:28:27;;;;;;;98.68;51.83;;;;;;;21.11;33.46;103041.34;5033037;28;20051;-65
2022/03/25 09:30:53;;;;;;;98.45;47.72;;;;;;;21.88;28.64;103048.41;5029081;28;20029;-65
2022/03/25 09:33:18;;;;;;;95.57;49.28;;;;;;;22.56;28.81;103044.47;5036280;28;20034;-65
2022/03/25 09:35:44;;;;;;;74.00;39.72;;;;;;;22.09;27.40;103042.03;5038565;28;20048;-66
2022/03/25 09:38:10;;;;;;;89.03;43.20;;;;;;;20.31;29.39;103055.16;5036491;28;20037;-66
2022/03/25 09:40:35;;;;;;;84.05;40.67;;;;;;;19.64;30.01;103041.47;5044184;28;20086;-66
2022/03/25 09:43:01;;;;;;;91.13;39.90;;;;;;;20.35;29.50;103042.41;5039722;28;20029;-65
2022/03/25 09:45:27;;;;;;;88.50;43.65;;;;;;;20.49;28.99;103046.69;5043749;28;20033;-65
2022/03/25 09:47:54;;;;;;;93.03;48.13;;;;;;;20.64;29.07;103035.88;5048023;28;20025;-64
2022/03/25 09:50:21;;;;;;;89.28;44.55;;;;;;;21.07;27.61;103028.94;5037382;28;20021;-64
2022/03/25 09:52:48;;;;;;;90.68;45.08;;;;;;;21.98;29.19;103031.78;5039929;28;21645;-65
2022/03/25 09:55:13;;;;;;;88.57;44.88;;;;;;;22.84;28.17;103031.41;5036237;28;20029;-64
2022/03/25 09:57:40;;;;;;;87.28;46.28;;;;;;;23.44;26.92;103031.28;5044826;28;20098;-65
2022/03/25 10:00:07;;;;;;;86.90;42.92;;;;;;;24.20;23.51;103024.69;5044152;28;20102;-64
2022/03/25 10:02:32;;;;;;;88.30;44.67;;;;;;;25.22;24.01;103026.09;5037861;28;20512;-63
2022/03/25 10:04:58;;;;;;;88.03;46.38;;;;;;;25.58;24.68;103021.38;5043814;28;20021;-64
2022/03/25 10:07:30;;;;;;;87.88;46.25;;;;;;;25.98;25.13;103018.88;5044337;28;20371;-64
2022/03/25 10:10:09;;;;;;;90.32;45.55;;;;;;;26.12;24.65;103029.28;5042615;28;20063;-65
2022/03/25 10:12:36;;;;;;;95.57;46.33;;;;;;;26.18;23.94;103032.09;5044724;28;20025;-65
2022/03/25 10:15:20;;;;;;;102.15;47.95;;;;;;;27.13;24.59;103026.50;5043961;28;20027;-65
2022/03/25 10:17:49;;;;;;;85.90;40.65;;;;;;;26.89;22.53;103026.28;5040523;28;20048;-65
2022/03/25 10:20:15;;;;;;;63.60;26.90;;;;;;;26.03;20.73;103030.13;5043254;28;20476;-65
2022/03/25 10:23:10;;;;;;;80.80;33.08;;;;;;;23.38;24.16;103023.09;5044208;28;20025;-65
2022/03/25 10:25:39;;;;;;;100.25;45.47;;;;;;;22.61;24.68;103033.34;5043292;28;20250;-64
2022/03/25 10:28:16;;;;;;;97.55;44.40;;;;;;;23.74;28.01;103029.94;5044815;28;20128;-64
2022/03/25 10:30:42;;;;;;;101.57;48.00;;;;;;;24.51;24.68;103018.16;5043351;28;20013;-65
2022/03/25 10:33:09;;;;;;;99.40;45.70;;;;;;;25.14;22.23;103020.16;5042767;28;20216;-64
2022/03/25 10:36:00;;;;;;;95.35;40.00;;;;;;;25.18;22.56;103015.66;5044210;28;20033;-65
2022/03/25 10:38:27;;;;;;;77.70;37.17;;;;;;;25.16;22.97;103007.50;5042501;28;20086;-64
2022/03/25 10:40:55;;;;;;;104.03;47.38;;;;;;;23.65;27.35;103026.75;5041643;28;20052;-65
2022/03/25 10:43:22;;;;;;;102.55;48.58;;;;;;;23.98;23.50;103020.03;5042893;28;20065;-65
2022/03/25 10:45:47;;;;;;;105.45;49.55;;;;;;;23.94;23.87;103012.44;5030672;28;20095;-65
2022/03/25 10:48:21;;;;;;;107.38;48.75;;;;;;;24.94;23.04;103013.31;5040950;28;20029;-65
2022/03/25 10:51:08;;;;;;;107.90;49.45;;;;;;;25.47;24.02;103016.00;5039987;28;20033;-65
2022/03/25 10:53:36;;;;;;;105.55;48.15;;;;;;;26.06;23.83;103012.69;5044329;28;20056;-65
2022/03/25 10:56:06;;;;;;;106.63;47.75;;;;;;;26.28;22.48;103013.19;5043932;28;20048;-65
2022/03/25 10:58:34;;;;;;;110.65;49.83;;;;;;;26.43;21.72;103019.97;5042795;28;20048;-65
2022/03/25 11:01:00;;;;;;;96.07;49.20;;;;;;;26.89;19.99;103012.19;5037903;28;20025;-64
2022/03/25 11:03:25;;;;;;;92.68;46.22;;;;;;;27.40;22.41;103012.75;5036147;28;20039;-65
2022/03/25 11:05:52;;;;;;;97.40;47.40;;;;;;;27.20;19.09;103012.06;5042507;28;20021;-64
2022/03/25 11:08:17;;;;;;;92.85;45.63;;;;;;;27.28;21.04;103008.63;5040507;28;20045;-65
2022/03/25 11:10:43;;;;;;;84.72;40.55;;;;;;;27.00;22.68;103013.81;5041639;28;20052;-65